createdAt,value
2019-01-29T00:01:03.918Z,80.49
2019-01-29T00:03:32.992Z,80.49
2019-01-29T00:06:02.050Z,80.17
2019-01-29T00:08:31.093Z,80.21
2019-01-29T00:11:00.185Z,80.23
2019-01-29T00:13:29.235Z,80.38
2019-01-29T00:15:58.270Z,80.34
2019-01-29T00:18:27.349Z,80.23
2019-01-29T00:20:56.424Z,80.38
2019-01-29T00:23:25.497Z,80.20
2019-01-29T00:25:54.555Z,80.19
2019-01-29T00:28:23.689Z,80.19
2019-01-29T00:30:52.733Z,80.30
2019-01-29T00:33:21.810Z,80.21
2019-01-29T00:35:50.851Z,80.24
2019-01-29T00:38:19.903Z,80.12
2019-01-29T00:40:48.945Z,80.12
2019-01-29T00:43:18.913Z,80.43
2019-01-29T00:45:47.918Z,80.59
2019-01-29T00:48:16.956Z,80.60
2019-01-29T00:50:46.104Z,80.51
2019-01-29T00:53:15.132Z,80.49
2019-01-29T00:55:44.194Z,80.54
2019-01-29T00:58:13.254Z,80.49
2019-01-29T01:00:42.327Z,80.35
2019-01-29T01:03:30.588Z,80.53
2019-01-29T01:05:59.625Z,80.53
2019-01-29T01:08:28.815Z,80.24
2019-01-29T01:10:57.849Z,80.33
2019-01-29T01:13:26.892Z,80.35
2019-01-29T01:15:56.032Z,80.36
2019-01-29T01:18:25.090Z,80.25
2019-01-29T01:20:54.126Z,80.55
2019-01-29T01:23:23.192Z,80.44
2019-01-29T01:25:52.229Z,80.54
2019-01-29T01:28:21.257Z,80.48
2019-01-29T01:30:50.334Z,80.55
2019-01-29T01:33:19.365Z,80.90
2019-01-29T01:35:48.444Z,80.90
2019-01-29T01:38:17.479Z,80.50
2019-01-29T01:40:46.521Z,80.43
2019-01-29T01:43:15.575Z,80.35
2019-01-29T01:45:44.631Z,80.51
2019-01-29T01:48:13.710Z,80.63
2019-01-29T01:50:42.711Z,80.70
2019-01-29T01:53:11.751Z,80.70
2019-01-29T01:55:40.799Z,80.70
2019-01-29T01:58:09.839Z,81.08
2019-01-29T02:00:38.909Z,81.08
2019-01-29T02:03:07.989Z,80.86
2019-01-29T02:05:37.020Z,80.82
2019-01-29T02:08:06.182Z,80.65
2019-01-29T02:10:35.244Z,80.94
2019-01-29T02:13:04.334Z,80.82
2019-01-29T02:15:33.412Z,81.09
2019-01-29T02:18:02.432Z,80.92
2019-01-29T02:20:31.505Z,80.88
2019-01-29T02:23:07.751Z,80.92
2019-01-29T02:25:31.295Z,80.81
2019-01-29T02:28:00.323Z,80.95
2019-01-29T02:30:29.359Z,80.85
2019-01-29T02:32:58.420Z,80.78
2019-01-29T02:35:27.495Z,80.56
2019-01-29T02:37:56.563Z,80.77
2019-01-29T02:40:27.199Z,80.66
2019-01-29T02:42:56.257Z,80.58
2019-01-29T02:45:25.613Z,80.46
2019-01-29T02:47:54.606Z,80.43
2019-01-29T02:50:23.706Z,80.46
2019-01-29T02:52:52.704Z,80.49
2019-01-29T02:55:21.715Z,80.51
2019-01-29T02:57:50.708Z,80.48
2019-01-29T03:00:21.588Z,80.78
2019-01-29T03:02:50.572Z,80.78
2019-01-29T03:05:19.828Z,80.43
2019-01-29T03:07:48.839Z,80.34
2019-01-29T03:10:19.953Z,80.25
2019-01-29T03:12:48.953Z,80.25
2019-01-29T03:15:20.574Z,80.17
2019-01-29T03:17:49.555Z,80.09
2019-01-29T03:20:18.649Z,80.13
2019-01-29T03:22:47.645Z,80.05
2019-01-29T03:25:16.654Z,80.05
2019-01-29T03:27:45.671Z,79.99
2019-01-29T03:30:16.049Z,80.00
2019-01-29T03:32:45.081Z,80.09
2019-01-29T03:35:14.176Z,80.41
2019-01-29T03:37:43.259Z,80.41
2019-01-29T03:40:14.696Z,80.32
2019-01-29T03:42:43.695Z,80.51
2019-01-29T03:45:14.839Z,80.51
2019-01-29T03:47:43.935Z,80.56
2019-01-29T03:50:14.238Z,80.39
2019-01-29T03:52:43.317Z,80.49
2019-01-29T03:55:12.337Z,80.40
2019-01-29T03:57:41.383Z,80.45
2019-01-29T04:00:16.060Z,80.30
2019-01-29T04:02:44.220Z,80.30
2019-01-29T04:05:13.214Z,80.46
2019-01-29T04:07:42.209Z,80.69
2019-01-29T04:10:12.192Z,80.69
2019-01-29T04:12:41.224Z,80.44
2019-01-29T04:15:14.294Z,80.46
2019-01-29T04:17:43.349Z,80.46
2019-01-29T04:20:14.739Z,80.50
2019-01-29T04:22:45.775Z,80.52
2019-01-29T04:25:14.494Z,80.53
2019-01-29T04:27:43.634Z,80.49
2019-01-29T04:30:15.305Z,80.44
2019-01-29T04:32:45.531Z,80.38
2019-01-29T04:35:14.529Z,80.47
2019-01-29T04:37:43.553Z,80.48
2019-01-29T04:40:14.042Z,80.50
2019-01-29T04:42:43.031Z,80.22
2019-01-29T04:45:12.680Z,80.24
2019-01-29T04:47:41.673Z,80.20
2019-01-29T04:50:13.063Z,80.34
2019-01-29T04:52:42.243Z,80.38
2019-01-29T04:55:12.148Z,80.35
2019-01-29T04:57:41.210Z,80.81
2019-01-29T05:00:13.284Z,80.81
2019-01-29T05:02:42.327Z,80.55
2019-01-29T05:05:11.407Z,80.52
2019-01-29T05:07:40.409Z,80.45
2019-01-29T05:10:10.667Z,80.39
2019-01-29T05:12:39.716Z,80.14
2019-01-29T05:15:11.080Z,80.44
2019-01-29T05:17:40.104Z,80.44
2019-01-29T05:20:11.448Z,80.50
2019-01-29T05:22:40.488Z,80.44
2019-01-29T05:25:09.578Z,80.53
2019-01-29T05:27:38.604Z,80.43
2019-01-29T05:30:12.115Z,80.51
2019-01-29T05:32:41.090Z,80.35
2019-01-29T05:35:10.220Z,80.57
2019-01-29T05:37:39.239Z,80.58
2019-01-29T05:40:11.899Z,80.37
2019-01-29T05:42:40.925Z,80.37
2019-01-29T05:45:11.618Z,80.50
2019-01-29T05:47:40.669Z,80.15
2019-01-29T05:50:10.636Z,80.15
2019-01-29T05:52:39.669Z,80.43
2019-01-29T05:55:09.123Z,80.39
2019-01-29T05:57:38.134Z,80.28
2019-01-29T06:00:10.017Z,80.22
2019-01-29T06:02:39.133Z,80.20
2019-01-29T06:05:08.397Z,80.34
2019-01-29T06:07:37.431Z,80.37
2019-01-29T06:10:07.058Z,80.53
2019-01-29T06:12:36.070Z,80.53
2019-01-29T06:15:05.936Z,80.43
2019-01-29T06:17:34.963Z,80.51
2019-01-29T06:20:04.183Z,80.50
2019-01-29T06:22:33.245Z,80.28
2019-01-29T06:25:02.347Z,80.39
2019-01-29T06:27:31.360Z,80.25
2019-01-29T06:30:00.354Z,80.23
2019-01-29T06:32:29.492Z,80.15
2019-01-29T06:34:58.486Z,80.13
2019-01-29T06:37:27.470Z,80.00
2019-01-29T06:39:56.547Z,79.99
2019-01-29T06:42:25.602Z,79.88
2019-01-29T06:44:54.666Z,79.91
2019-01-29T06:47:23.743Z,79.76
2019-01-29T06:49:52.773Z,79.73
2019-01-29T06:52:21.798Z,79.87
2019-01-29T06:54:50.866Z,79.87
2019-01-29T06:57:19.867Z,80.23
2019-01-29T06:59:48.881Z,80.00
2019-01-29T07:02:17.899Z,80.00
2019-01-29T07:04:46.913Z,79.92
2019-01-29T07:07:15.944Z,79.74
2019-01-29T07:09:45.057Z,79.73
2019-01-29T07:12:14.058Z,79.63
2019-01-29T07:14:43.110Z,79.71
2019-01-29T07:17:28.859Z,79.91
2019-01-29T07:20:00.662Z,80.19
2019-01-29T07:22:29.701Z,79.97
2019-01-29T07:24:58.778Z,79.97
2019-01-29T07:27:27.884Z,79.98
2019-01-29T07:29:56.904Z,79.86
2019-01-29T07:32:25.956Z,79.72
2019-01-29T07:34:55.086Z,79.74
2019-01-29T07:37:24.200Z,79.74
2019-01-29T07:39:53.296Z,79.62
2019-01-29T07:42:22.404Z,79.56
2019-01-29T07:44:51.412Z,79.65
2019-01-29T07:47:21.204Z,79.26
2019-01-29T07:49:50.553Z,79.37
2019-01-29T07:52:19.614Z,79.44
2019-01-29T07:54:51.217Z,79.48
2019-01-29T07:57:19.537Z,79.39
2019-01-29T07:59:48.606Z,79.28
2019-01-29T08:02:17.646Z,79.28
2019-01-29T08:04:46.797Z,78.64
2019-01-29T08:07:15.917Z,78.40
2019-01-29T08:09:45.115Z,77.96
2019-01-29T08:12:14.175Z,77.16
2019-01-29T08:14:43.257Z,76.60
2019-01-29T08:17:12.313Z,76.28
2019-01-29T08:19:41.419Z,75.96
2019-01-29T08:22:10.445Z,75.74
2019-01-29T08:24:39.522Z,75.45
2019-01-29T08:27:08.704Z,75.07
2019-01-29T08:29:37.780Z,74.68
2019-01-29T08:32:06.935Z,74.83
2019-01-29T08:34:36.228Z,75.14
2019-01-29T08:37:05.341Z,75.63
2019-01-29T08:39:34.426Z,75.90
2019-01-29T08:42:03.494Z,76.22
2019-01-29T08:44:32.513Z,76.38
2019-01-29T08:47:01.578Z,76.46
2019-01-29T08:49:30.669Z,76.54
2019-01-29T08:51:59.814Z,77.01
2019-01-29T08:54:28.886Z,77.19
2019-01-29T08:57:00.835Z,77.19
2019-01-29T08:59:29.855Z,77.55
2019-01-29T09:01:59.038Z,77.76
2019-01-29T09:04:28.148Z,77.56
2019-01-29T09:06:57.224Z,77.56
2019-01-29T09:09:26.267Z,77.51
2019-01-29T09:11:55.385Z,77.90
2019-01-29T09:14:24.429Z,77.74
2019-01-29T09:16:53.482Z,77.81
2019-01-29T09:19:22.577Z,77.87
2019-01-29T09:21:51.653Z,78.32
2019-01-29T09:24:20.727Z,78.84
2019-01-29T09:26:49.743Z,78.90
2019-01-29T09:29:18.786Z,79.63
2019-01-29T09:31:47.807Z,79.92
2019-01-29T09:34:16.853Z,80.11
2019-01-29T09:36:45.871Z,80.05
2019-01-29T09:39:14.864Z,80.16
2019-01-29T09:41:43.954Z,79.37
2019-01-29T09:44:12.936Z,79.37
2019-01-29T09:46:41.928Z,79.62
2019-01-29T09:49:11.328Z,80.04
2019-01-29T09:51:40.448Z,79.98
2019-01-29T09:54:09.463Z,79.80
2019-01-29T09:56:38.510Z,79.98
2019-01-29T09:59:07.544Z,80.19
2019-01-29T10:01:36.579Z,79.87
2019-01-29T10:04:05.738Z,80.03
2019-01-29T10:06:34.774Z,79.79
2019-01-29T10:09:06.861Z,79.82
2019-01-29T10:11:37.977Z,79.67
2019-01-29T10:14:07.196Z,79.53
2019-01-29T10:16:36.269Z,79.32
2019-01-29T10:19:05.529Z,79.48
2019-01-29T10:21:34.610Z,79.48
2019-01-29T10:24:03.667Z,79.22
2019-01-29T10:26:32.753Z,79.09
2019-01-29T10:29:01.733Z,78.92
2019-01-29T10:31:30.811Z,79.04
2019-01-29T10:33:59.879Z,78.21
2019-01-29T10:36:28.917Z,78.66
2019-01-29T10:38:57.904Z,78.81
2019-01-29T10:41:26.902Z,78.59
2019-01-29T10:43:55.908Z,78.58
2019-01-29T10:46:24.912Z,77.30
2019-01-29T10:48:53.929Z,78.13
2019-01-29T10:51:22.904Z,78.10
2019-01-29T10:53:52.071Z,77.72
2019-01-29T10:56:21.137Z,77.78
2019-01-29T10:58:50.144Z,77.72
2019-01-29T11:01:19.152Z,77.72
2019-01-29T11:03:48.272Z,77.59
2019-01-29T11:06:17.258Z,77.57
2019-01-29T11:08:46.302Z,77.34
2019-01-29T11:11:21.235Z,77.41
2019-01-29T11:13:50.200Z,77.40
2019-01-29T11:16:21.216Z,77.08
2019-01-29T11:19:03.185Z,76.71
2019-01-29T11:21:28.243Z,76.30
2019-01-29T11:23:57.272Z,76.57
2019-01-29T11:26:26.359Z,76.54
2019-01-29T11:29:01.541Z,76.80
2019-01-29T11:31:35.603Z,76.49
2019-01-29T11:34:04.917Z,76.05
2019-01-29T11:36:35.732Z,74.95
2019-01-29T11:39:08.103Z,72.40
2019-01-29T11:41:37.045Z,73.45
2019-01-29T11:44:29.863Z,72.48
2019-01-29T11:46:59.102Z,72.16
2019-01-29T11:49:31.490Z,71.21
2019-01-29T11:52:02.337Z,69.13
2019-01-29T11:54:31.458Z,70.60
2019-01-29T11:57:00.558Z,71.02
2019-01-29T11:59:29.590Z,69.79
2019-01-29T12:01:58.604Z,70.73
2019-01-29T12:04:27.828Z,70.51
2019-01-29T12:06:56.844Z,70.97
2019-01-29T12:09:25.873Z,71.38
2019-01-29T12:11:54.862Z,71.35
2019-01-29T12:14:23.910Z,71.10
2019-01-29T12:16:52.930Z,71.51
2019-01-29T12:19:22.093Z,71.45
2019-01-29T12:21:51.089Z,72.06
2019-01-29T12:24:20.101Z,72.13
2019-01-29T12:26:49.121Z,72.79
2019-01-29T12:29:18.160Z,72.36
2019-01-29T12:31:47.132Z,72.85
2019-01-29T12:34:20.533Z,72.79
2019-01-29T12:36:49.561Z,72.78
2019-01-29T12:39:18.562Z,73.70
2019-01-29T12:41:47.556Z,73.40
2019-01-29T12:44:16.571Z,72.92
2019-01-29T12:46:45.569Z,72.93
2019-01-29T12:49:14.597Z,73.20
2019-01-29T12:52:05.446Z,73.10
2019-01-29T12:54:34.574Z,72.84
2019-01-29T12:57:03.587Z,72.57
2019-01-29T12:59:32.626Z,72.67
2019-01-29T13:02:01.666Z,73.26
2019-01-29T13:04:30.670Z,73.62
2019-01-29T13:07:00.130Z,73.78
2019-01-29T13:09:29.180Z,73.88
2019-01-29T13:11:58.238Z,73.20
2019-01-29T13:14:27.284Z,73.06
2019-01-29T13:16:56.283Z,73.70
2019-01-29T13:19:25.319Z,73.41
2019-01-29T13:21:54.344Z,73.04
2019-01-29T13:24:23.375Z,73.44
2019-01-29T13:26:52.447Z,73.73
2019-01-29T13:29:21.510Z,73.74
2019-01-29T13:31:50.542Z,73.42
2019-01-29T13:34:19.590Z,73.60
2019-01-29T13:36:48.653Z,74.04
2019-01-29T13:39:18.041Z,74.49
2019-01-29T13:41:47.039Z,74.24
2019-01-29T13:44:16.023Z,75.90
2019-01-29T13:46:45.015Z,76.75
2019-01-29T13:49:14.173Z,76.80
2019-01-29T13:51:43.243Z,76.65
2019-01-29T13:54:12.279Z,76.78
2019-01-29T13:56:45.347Z,76.78
2019-01-29T13:59:14.413Z,76.44
2019-01-29T14:01:43.445Z,75.23
2019-01-29T14:04:12.475Z,75.58
2019-01-29T14:06:41.506Z,75.58
2019-01-29T14:09:10.573Z,74.77
2019-01-29T14:11:39.703Z,74.26
2019-01-29T14:14:08.718Z,74.23
2019-01-29T14:16:37.832Z,73.75
2019-01-29T14:19:10.026Z,72.80
2019-01-29T14:21:39.072Z,72.76
2019-01-29T14:24:08.062Z,72.93
2019-01-29T14:26:37.153Z,72.88
2019-01-29T14:29:06.327Z,73.34
2019-01-29T14:31:35.383Z,73.14
2019-01-29T14:34:04.655Z,72.99
2019-01-29T14:36:33.632Z,72.07
2019-01-29T14:39:54.337Z,72.16
2019-01-29T14:42:23.380Z,72.91
2019-01-29T14:44:53.975Z,73.76
2019-01-29T14:47:23.000Z,71.59
2019-01-29T14:49:52.123Z,72.85
2019-01-29T14:52:21.239Z,72.60
2019-01-29T14:54:50.296Z,73.15
2019-01-29T14:57:19.415Z,72.99
2019-01-29T14:59:48.473Z,71.44
2019-01-29T15:02:17.559Z,72.02
2019-01-29T15:04:46.718Z,73.15
2019-01-29T15:07:15.888Z,73.33
2019-01-29T15:09:44.935Z,73.66
2019-01-29T15:12:14.053Z,74.04
2019-01-29T15:14:43.143Z,74.10
2019-01-29T15:17:36.531Z,74.55
2019-01-29T15:20:06.783Z,74.46
2019-01-29T15:22:35.938Z,74.60
2019-01-29T15:25:05.750Z,74.68
2019-01-29T15:27:35.128Z,74.93
2019-01-29T15:30:04.422Z,74.57
2019-01-29T15:32:33.486Z,74.46
2019-01-29T15:35:02.613Z,75.00
2019-01-29T15:37:31.761Z,74.80
2019-01-29T15:40:00.895Z,74.80
2019-01-29T15:42:30.108Z,75.84
2019-01-29T15:44:59.187Z,75.47
2019-01-29T15:47:28.447Z,74.88
2019-01-29T15:50:26.617Z,74.88
2019-01-29T15:52:58.857Z,75.41
2019-01-29T15:55:27.939Z,75.78
2019-01-29T15:57:57.241Z,75.93
2019-01-29T16:00:28.239Z,76.08
2019-01-29T16:02:57.379Z,76.24
2019-01-29T16:05:27.399Z,76.30
2019-01-29T16:07:56.520Z,76.27
2019-01-29T16:10:28.260Z,76.36
2019-01-29T16:12:57.404Z,76.36
2019-01-29T16:15:26.540Z,76.17
2019-01-29T16:17:55.756Z,76.31
2019-01-29T16:20:25.020Z,76.46
2019-01-29T16:22:54.192Z,75.24
2019-01-29T16:25:23.401Z,75.24
2019-01-29T16:27:52.592Z,75.69
2019-01-29T16:30:26.276Z,75.27
2019-01-29T16:32:55.418Z,75.78
2019-01-29T16:35:33.449Z,75.33
2019-01-29T16:38:02.886Z,75.17
2019-01-29T16:40:32.019Z,74.56
2019-01-29T16:43:01.188Z,74.56
2019-01-29T16:45:31.935Z,74.53
2019-01-29T16:48:01.088Z,74.77
2019-01-29T16:50:30.192Z,75.13
2019-01-29T16:52:59.463Z,75.01
2019-01-29T16:55:28.540Z,75.25
2019-01-29T16:57:57.648Z,75.59
2019-01-29T17:00:28.271Z,76.11
2019-01-29T17:02:58.279Z,76.11
2019-01-29T17:05:27.407Z,75.99
2019-01-29T17:07:56.487Z,76.88
2019-01-29T17:10:25.588Z,77.04
2019-01-29T17:12:54.699Z,77.11
2019-01-29T17:15:28.221Z,77.29
2019-01-29T17:17:58.621Z,77.38
2019-01-29T17:20:37.939Z,77.43
2019-01-29T17:23:07.685Z,77.43
2019-01-29T17:25:36.749Z,77.37
2019-01-29T17:28:07.480Z,77.29
2019-01-29T17:30:41.386Z,77.42
2019-01-29T17:33:11.437Z,77.61
2019-01-29T17:35:41.283Z,77.63
2019-01-29T17:38:10.386Z,77.74
2019-01-29T17:40:39.508Z,77.44
2019-01-29T17:43:08.758Z,77.40
2019-01-29T17:45:40.687Z,77.55
2019-01-29T17:48:09.938Z,77.21
2019-01-29T17:50:40.570Z,77.32
2019-01-29T17:53:09.762Z,77.46
2019-01-29T17:55:40.288Z,77.69
2019-01-29T17:58:10.415Z,77.69
2019-01-29T18:00:41.298Z,78.04
2019-01-29T18:03:10.413Z,78.04
2019-01-29T18:05:39.601Z,78.08
2019-01-29T18:08:08.875Z,78.26
2019-01-29T18:10:38.083Z,78.35
2019-01-29T18:13:07.341Z,78.26
2019-01-29T18:15:36.758Z,78.53
2019-01-29T18:18:07.735Z,78.75
2019-01-29T18:20:36.951Z,78.90
2019-01-29T18:23:06.185Z,78.92
2019-01-29T18:25:35.345Z,79.01
2019-01-29T18:28:04.590Z,79.10
2019-01-29T18:30:33.877Z,79.04
2019-01-29T18:33:03.404Z,79.09
2019-01-29T18:35:32.649Z,79.07
2019-01-29T18:38:01.786Z,79.00
2019-01-29T18:40:37.446Z,79.02
2019-01-29T18:43:06.723Z,79.14
2019-01-29T18:45:37.988Z,79.23
2019-01-29T18:48:07.082Z,79.31
2019-01-29T18:50:36.643Z,79.21
2019-01-29T18:53:08.140Z,79.27
2019-01-29T18:55:37.355Z,79.21
2019-01-29T18:58:12.039Z,79.21
2019-01-29T19:00:38.086Z,79.14
2019-01-29T19:03:07.333Z,78.84
2019-01-29T19:05:36.489Z,79.06
2019-01-29T19:08:05.766Z,79.23
2019-01-29T19:10:35.066Z,79.27
2019-01-29T19:13:04.813Z,79.34
2019-01-29T19:15:34.154Z,79.28
2019-01-29T19:18:03.333Z,79.30
2019-01-29T19:20:32.631Z,79.41
2019-01-29T19:23:02.102Z,79.21
2019-01-29T19:25:31.357Z,79.26
2019-01-29T19:28:00.833Z,79.43
2019-01-29T19:30:31.960Z,79.51
2019-01-29T19:33:01.362Z,79.46
2019-01-29T19:35:30.799Z,79.58
2019-01-29T19:38:00.895Z,79.83
2019-01-29T19:40:30.386Z,79.87
2019-01-29T19:43:00.090Z,79.77
2019-01-29T19:45:31.718Z,79.61
2019-01-29T19:48:01.397Z,79.73
2019-01-29T19:50:31.685Z,79.79
2019-01-29T19:53:00.991Z,79.83
2019-01-29T19:55:30.212Z,80.01
2019-01-29T19:58:08.682Z,80.12
2019-01-29T20:00:33.625Z,80.09
2019-01-29T20:03:08.252Z,80.12
2019-01-29T20:05:37.927Z,80.06
2019-01-29T20:08:09.875Z,79.76
2019-01-29T20:10:42.062Z,79.92
2019-01-29T20:13:11.510Z,80.10
2019-01-29T20:15:40.929Z,80.13
2019-01-29T20:18:13.432Z,80.22
2019-01-29T20:20:42.520Z,80.34
2019-01-29T20:23:11.797Z,80.25
2019-01-29T20:25:40.982Z,80.31
2019-01-29T20:28:10.174Z,80.43
2019-01-29T20:30:40.251Z,80.37
2019-01-29T20:33:09.840Z,80.54
2019-01-29T20:35:39.459Z,80.44
2019-01-29T20:38:10.689Z,80.41
2019-01-29T20:40:40.565Z,80.32
2019-01-29T20:43:10.211Z,80.39
2019-01-29T20:45:41.171Z,80.50
2019-01-29T20:48:10.370Z,80.50
2019-01-29T20:51:05.659Z,80.28
2019-01-29T20:53:36.556Z,80.34
2019-01-29T20:56:06.259Z,80.45
2019-01-29T20:58:35.790Z,80.49
2019-01-29T21:01:05.480Z,80.39
2019-01-29T21:03:34.681Z,80.66
2019-01-29T21:06:04.054Z,80.56
2019-01-29T21:08:33.370Z,80.65
2019-01-29T21:11:02.739Z,80.68
2019-01-29T21:13:31.888Z,80.25
2019-01-29T21:16:01.134Z,80.33
2019-01-29T21:18:30.432Z,80.50
2019-01-29T21:20:59.770Z,80.74
2019-01-29T21:23:29.123Z,80.84
2019-01-29T21:25:58.434Z,81.08
2019-01-29T21:28:28.197Z,81.18
2019-01-29T21:30:57.533Z,81.26
2019-01-29T21:33:26.895Z,81.01
2019-01-29T21:35:56.173Z,80.31
2019-01-29T21:38:26.419Z,79.78
2019-01-29T21:40:55.695Z,80.56
2019-01-29T21:43:24.934Z,80.98
2019-01-29T21:45:54.153Z,80.72
2019-01-29T21:48:23.277Z,80.95
2019-01-29T21:50:52.734Z,80.91
2019-01-29T21:53:22.070Z,81.05
2019-01-29T21:55:51.371Z,80.79
2019-01-29T21:58:20.655Z,81.06
2019-01-29T22:00:49.882Z,81.23
2019-01-29T22:03:19.143Z,81.45
2019-01-29T22:05:48.542Z,81.22
2019-01-29T22:08:17.798Z,81.36
2019-01-29T22:10:46.955Z,81.86
2019-01-29T22:13:16.198Z,81.71
2019-01-29T22:15:45.545Z,81.75
2019-01-29T22:18:15.660Z,81.60
2019-01-29T22:20:44.868Z,81.53
2019-01-29T22:23:14.103Z,81.47
2019-01-29T22:25:43.242Z,81.47
2019-01-29T22:28:12.705Z,81.46
2019-01-29T22:30:43.249Z,81.09
2019-01-29T22:33:14.531Z,81.29
2019-01-29T22:35:45.533Z,81.17
2019-01-29T22:38:14.748Z,81.21
2019-01-29T22:40:43.907Z,81.32
2019-01-29T22:43:13.073Z,81.29
2019-01-29T22:45:42.165Z,81.37
2019-01-29T22:48:11.637Z,81.32
2019-01-29T22:50:42.254Z,81.21
2019-01-29T22:53:11.538Z,80.50
2019-01-29T22:55:40.710Z,80.80
2019-01-29T22:58:09.991Z,81.03
2019-01-29T23:01:05.308Z,81.01
2019-01-29T23:03:38.345Z,81.15
2019-01-29T23:06:42.190Z,80.89
2019-01-29T23:09:12.052Z,81.20
2019-01-29T23:11:41.156Z,81.16
2019-01-29T23:14:10.326Z,81.35
2019-01-29T23:16:39.506Z,81.62
2019-01-29T23:19:08.662Z,81.49
2019-01-29T23:21:37.962Z,81.65
2019-01-29T23:24:07.196Z,81.60
2019-01-29T23:26:36.573Z,81.26
2019-01-29T23:29:05.764Z,81.36
2019-01-29T23:31:35.006Z,81.54
2019-01-29T23:34:04.119Z,81.39
2019-01-29T23:36:33.294Z,81.56
2019-01-29T23:39:02.529Z,81.70
2019-01-29T23:41:31.679Z,81.64
2019-01-29T23:44:00.800Z,81.71
2019-01-29T23:46:29.946Z,81.58
2019-01-29T23:48:59.063Z,81.68
2019-01-29T23:51:28.218Z,81.33
2019-01-29T23:53:57.635Z,81.21
2019-01-29T23:56:26.814Z,81.06
2019-01-29T23:58:56.104Z,82.07
